createdAt,value
2022-09-30T00:00:48.625Z,94634.00
2022-09-30T00:04:52.669Z,94632.00
2022-09-30T00:08:55.768Z,94632.00
2022-09-30T00:12:58.690Z,94646.00
2022-09-30T00:17:01.371Z,94634.00
2022-09-30T00:21:06.081Z,94656.00
2022-09-30T00:25:09.280Z,94653.00
2022-09-30T00:29:12.261Z,94654.00
2022-09-30T00:33:14.967Z,94648.00
2022-09-30T00:37:18.965Z,94651.00
2022-09-30T00:41:22.382Z,94653.00
2022-09-30T00:45:27.571Z,94646.00
2022-09-30T00:49:30.258Z,94650.00
2022-09-30T00:53:40.196Z,94663.00
2022-09-30T00:57:42.950Z,94658.00
2022-09-30T01:01:46.041Z,94654.00
2022-09-30T01:05:49.314Z,94654.00
2022-09-30T01:09:53.633Z,94663.00
2022-09-30T01:14:00.600Z,94673.00
2022-09-30T01:18:10.079Z,94673.00
2022-09-30T01:22:24.163Z,94672.00
2022-09-30T01:27:00.494Z,94673.00
2022-09-30T01:31:11.580Z,94692.00
2022-09-30T01:35:27.094Z,94684.00
2022-09-30T01:39:39.625Z,94691.00
2022-09-30T01:43:49.041Z,94694.00
2022-09-30T01:47:59.649Z,94704.00
2022-09-30T01:52:09.506Z,94714.00
2022-09-30T01:56:18.338Z,94714.00
2022-09-30T02:00:21.254Z,94706.00
2022-09-30T02:04:32.465Z,94700.00
2022-09-30T02:08:41.476Z,94713.00
2022-09-30T02:12:50.981Z,94701.00
2022-09-30T02:16:59.425Z,94699.00
2022-09-30T02:21:06.273Z,94691.00
2022-09-30T02:25:11.145Z,94693.00
2022-09-30T02:29:18.637Z,94689.00
2022-09-30T02:33:26.601Z,94692.00
2022-09-30T02:37:36.344Z,94696.00
2022-09-30T02:41:45.727Z,94695.00
2022-09-30T02:45:56.809Z,94698.00
2022-09-30T02:50:07.024Z,94705.00
2022-09-30T02:54:20.266Z,94704.00
2022-09-30T02:58:25.981Z,94713.00
2022-09-30T03:02:29.598Z,94715.00
2022-09-30T03:06:33.374Z,94709.00
2022-09-30T03:10:37.547Z,94720.00
2022-09-30T03:15:04.868Z,94726.00
2022-09-30T03:19:22.088Z,94718.00
2022-09-30T03:23:40.650Z,94721.00
2022-09-30T03:27:52.554Z,94736.00
2022-09-30T03:32:07.436Z,94754.00
2022-09-30T03:36:21.686Z,94762.00
2022-09-30T03:40:31.897Z,94760.00
2022-09-30T03:44:42.638Z,94750.00
2022-09-30T03:48:47.558Z,94753.00
2022-09-30T03:52:51.075Z,94759.00
2022-09-30T03:56:54.220Z,94758.00
2022-09-30T04:00:59.071Z,94756.00
2022-09-30T04:05:01.825Z,94759.00
2022-09-30T04:09:04.714Z,94767.00
2022-09-30T04:13:07.482Z,94764.00
2022-09-30T04:17:11.640Z,94771.00
2022-09-30T04:21:15.583Z,94780.00
2022-09-30T04:25:18.315Z,94782.00
2022-09-30T04:29:21.028Z,94789.00
2022-09-30T04:33:25.150Z,94795.00
2022-09-30T04:37:27.835Z,94798.00
2022-09-30T04:41:32.192Z,94800.00
2022-09-30T04:45:34.935Z,94802.00
2022-09-30T04:49:39.008Z,94801.00
2022-09-30T04:53:42.253Z,94800.00
2022-09-30T04:57:45.690Z,94798.00
2022-09-30T05:01:48.438Z,94808.00
2022-09-30T05:05:52.525Z,94805.00
2022-09-30T05:09:55.202Z,94810.00
2022-09-30T05:13:57.902Z,94809.00
2022-09-30T05:18:01.831Z,94811.00
2022-09-30T05:22:05.843Z,94813.00
2022-09-30T05:26:12.301Z,94813.00
2022-09-30T05:30:15.743Z,94817.00
2022-09-30T05:34:18.447Z,94824.00
2022-09-30T05:38:22.624Z,94832.00
2022-09-30T05:42:25.441Z,94836.00
2022-09-30T05:46:29.101Z,94835.00
2022-09-30T05:50:32.326Z,94843.00
2022-09-30T05:54:36.384Z,94858.00
2022-09-30T05:58:40.579Z,94868.00
2022-09-30T06:02:43.353Z,94871.00
2022-09-30T06:06:47.694Z,94872.00
2022-09-30T06:10:52.005Z,94879.00
2022-09-30T06:14:54.698Z,94898.00
2022-09-30T06:18:57.414Z,94883.00
2022-09-30T06:23:01.195Z,94885.00
2022-09-30T06:27:05.414Z,94890.00
2022-09-30T06:31:08.481Z,94891.00
2022-09-30T06:35:11.236Z,94892.00
2022-09-30T06:39:14.084Z,94892.00
2022-09-30T06:43:18.128Z,94900.00
2022-09-30T06:47:25.681Z,94897.00
2022-09-30T06:51:33.152Z,94909.00
2022-09-30T06:55:38.994Z,94911.00
2022-09-30T06:59:44.532Z,94916.00
2022-09-30T07:03:51.474Z,94930.00
2022-09-30T07:07:57.246Z,94929.00
2022-09-30T07:11:59.922Z,94935.00
2022-09-30T07:16:04.104Z,94933.00
2022-09-30T07:20:08.192Z,94939.00
2022-09-30T07:24:11.605Z,94942.00
2022-09-30T07:28:14.265Z,94933.00
2022-09-30T07:32:19.454Z,94945.00
2022-09-30T07:36:32.233Z,94946.00
2022-09-30T07:40:36.030Z,94938.00
2022-09-30T07:44:43.633Z,94933.00
2022-09-30T07:48:51.500Z,94934.00
2022-09-30T07:52:55.858Z,94950.00
2022-09-30T07:57:14.907Z,94953.00
2022-09-30T08:01:17.724Z,94966.00
2022-09-30T08:05:21.835Z,94962.00
2022-09-30T08:09:26.460Z,94977.00
2022-09-30T08:13:29.374Z,94989.00
2022-09-30T08:17:32.096Z,94989.00
2022-09-30T08:21:36.150Z,94986.00
2022-09-30T08:25:38.932Z,94974.00
2022-09-30T08:30:00.107Z,94982.00
2022-09-30T08:34:04.687Z,94990.00
2022-09-30T08:38:08.710Z,95006.00
2022-09-30T08:42:39.381Z,95002.00
2022-09-30T08:46:47.974Z,95004.00
2022-09-30T08:51:03.047Z,95010.00
2022-09-30T08:55:09.314Z,95017.00
2022-09-30T08:59:32.397Z,95020.00
2022-09-30T09:03:35.150Z,95024.00
2022-09-30T09:07:47.142Z,95042.00
2022-09-30T09:12:03.052Z,95047.00
2022-09-30T09:16:11.945Z,95056.00
2022-09-30T09:20:17.589Z,95055.00
2022-09-30T09:24:23.294Z,95066.00
2022-09-30T09:28:36.829Z,95064.00
2022-09-30T09:32:39.776Z,95073.00
2022-09-30T09:36:55.941Z,95068.00
2022-09-30T09:41:08.558Z,95068.00
2022-09-30T09:45:22.750Z,95061.00
2022-09-30T09:49:33.283Z,95066.00
2022-09-30T09:53:45.895Z,95057.00
2022-09-30T09:57:48.663Z,95060.00
2022-09-30T10:01:54.546Z,95070.00
2022-09-30T10:06:03.423Z,95073.00
2022-09-30T10:10:09.269Z,95085.00
2022-09-30T10:14:17.600Z,95095.00
2022-09-30T10:18:26.946Z,95095.00
2022-09-30T10:22:31.925Z,95089.00
2022-09-30T10:26:48.573Z,95099.00
2022-09-30T10:30:56.089Z,95096.00
2022-09-30T10:35:04.125Z,95089.00
2022-09-30T10:39:09.188Z,95103.00
2022-09-30T10:43:24.452Z,95111.00
2022-09-30T10:47:32.569Z,95107.00
2022-09-30T10:51:40.471Z,95108.00
2022-09-30T10:55:45.294Z,95109.00
2022-09-30T10:59:48.323Z,95111.00
2022-09-30T11:04:01.602Z,95114.00
2022-09-30T11:08:14.634Z,95107.00
2022-09-30T11:12:22.874Z,95118.00
2022-09-30T11:16:32.348Z,95123.00
2022-09-30T11:20:38.973Z,95132.00
2022-09-30T11:24:46.024Z,95140.00
2022-09-30T11:29:05.422Z,95148.00
2022-09-30T11:33:25.057Z,95145.00
2022-09-30T11:37:40.828Z,95136.00
2022-09-30T11:41:51.678Z,95135.00
2022-09-30T11:46:25.160Z,95127.00
2022-09-30T11:50:42.486Z,95133.00
2022-09-30T11:55:01.693Z,95127.00
2022-09-30T11:59:14.358Z,95122.00
2022-09-30T12:03:21.618Z,95132.00
2022-09-30T12:07:33.025Z,95132.00
2022-09-30T12:11:44.279Z,95131.00
2022-09-30T12:15:51.335Z,95130.00
2022-09-30T12:19:57.087Z,95131.00
2022-09-30T12:24:07.254Z,95119.00
2022-09-30T12:28:40.033Z,95125.00
2022-09-30T12:33:10.648Z,95120.00
2022-09-30T12:37:27.110Z,95121.00
2022-09-30T12:41:43.316Z,95129.00
2022-09-30T12:46:13.536Z,95131.00
2022-09-30T12:50:21.459Z,95125.00
2022-09-30T12:54:28.038Z,95125.00
2022-09-30T12:58:32.634Z,95129.00
2022-09-30T13:02:40.199Z,95134.00
2022-09-30T13:07:17.431Z,95129.00
2022-09-30T13:11:44.168Z,95136.00
2022-09-30T13:15:47.840Z,95133.00
2022-09-30T13:19:52.608Z,95135.00
2022-09-30T13:23:58.437Z,95133.00
2022-09-30T13:28:29.743Z,95133.00
2022-09-30T13:32:37.091Z,95126.00
2022-09-30T13:36:42.746Z,95140.00
2022-09-30T13:41:01.783Z,95150.00
2022-09-30T13:45:11.043Z,95138.00
2022-09-30T13:49:20.782Z,95140.00
2022-09-30T13:53:29.845Z,95130.00
2022-09-30T13:57:42.282Z,95127.00
2022-09-30T14:01:57.251Z,95131.00
2022-09-30T14:06:08.394Z,95126.00
2022-09-30T14:10:30.646Z,95132.00
2022-09-30T14:15:02.262Z,95139.00
2022-09-30T14:19:30.101Z,95131.00
2022-09-30T14:23:32.937Z,95127.00
2022-09-30T14:28:05.264Z,95121.00
2022-09-30T14:32:14.590Z,95126.00
2022-09-30T14:36:21.727Z,95138.00
2022-09-30T14:40:27.210Z,95138.00
2022-09-30T14:44:33.809Z,95148.00
2022-09-30T14:48:42.114Z,95163.00
2022-09-30T14:52:46.674Z,95147.00
2022-09-30T14:56:50.884Z,95152.00
2022-09-30T15:01:07.896Z,95144.00
2022-09-30T15:05:14.529Z,95152.00
2022-09-30T15:09:18.602Z,95146.00
2022-09-30T15:13:24.672Z,95160.00
2022-09-30T15:17:29.411Z,95158.00
2022-09-30T15:21:34.809Z,95161.00
2022-09-30T15:25:38.671Z,95157.00
2022-09-30T15:29:54.871Z,95153.00
2022-09-30T15:34:06.182Z,95163.00
2022-09-30T15:38:16.840Z,95161.00
2022-09-30T15:42:31.862Z,95170.00
2022-09-30T15:46:38.442Z,95175.00
2022-09-30T15:50:43.522Z,95185.00
2022-09-30T15:54:47.838Z,95185.00
2022-09-30T15:58:56.921Z,95185.00
2022-09-30T16:03:09.105Z,95203.00
2022-09-30T16:07:17.980Z,95197.00
2022-09-30T16:11:27.215Z,95210.00
2022-09-30T16:15:30.127Z,95209.00
2022-09-30T16:19:33.529Z,95208.00
2022-09-30T16:23:38.242Z,95214.00
2022-09-30T16:27:42.298Z,95221.00
2022-09-30T16:31:46.689Z,95210.00
2022-09-30T16:35:49.549Z,95216.00
2022-09-30T16:39:52.302Z,95216.00
2022-09-30T16:43:56.435Z,95224.00
2022-09-30T16:48:01.465Z,95223.00
2022-09-30T16:52:06.038Z,95236.00
2022-09-30T16:56:15.130Z,95230.00
2022-09-30T17:00:19.750Z,95245.00
2022-09-30T17:04:22.443Z,95243.00
2022-09-30T17:08:25.122Z,95242.00
2022-09-30T17:12:27.790Z,95244.00
2022-09-30T17:16:32.201Z,95261.00
2022-09-30T17:20:35.725Z,95253.00
2022-09-30T17:24:38.412Z,95259.00
2022-09-30T17:28:41.203Z,95258.00
2022-09-30T17:32:45.469Z,95260.00
2022-09-30T17:36:48.203Z,95258.00
2022-09-30T17:41:04.818Z,95253.00
2022-09-30T17:45:08.387Z,95263.00
2022-09-30T17:49:13.805Z,95273.00
2022-09-30T17:53:18.867Z,95273.00
2022-09-30T17:57:22.186Z,95273.00
2022-09-30T18:01:25.075Z,95269.00
2022-09-30T18:05:29.197Z,95274.00
2022-09-30T18:09:33.002Z,95286.00
2022-09-30T18:13:35.686Z,95282.00
2022-09-30T18:17:38.358Z,95291.00
2022-09-30T18:21:42.399Z,95287.00
2022-09-30T18:25:45.252Z,95291.00
2022-09-30T18:29:47.953Z,95296.00
2022-09-30T18:33:51.730Z,95299.00
2022-09-30T18:37:55.846Z,95309.00
2022-09-30T18:42:00.397Z,95299.00
2022-09-30T18:46:03.199Z,95299.00
2022-09-30T18:50:07.019Z,95305.00
2022-09-30T18:54:13.202Z,95309.00
2022-09-30T18:58:17.284Z,95312.00
2022-09-30T19:02:20.683Z,95313.00
2022-09-30T19:06:23.786Z,95298.00
2022-09-30T19:10:27.886Z,95293.00
2022-09-30T19:14:31.043Z,95294.00
2022-09-30T19:18:33.935Z,95293.00
2022-09-30T19:22:37.230Z,95282.00
2022-09-30T19:26:41.785Z,95280.00
2022-09-30T19:30:45.199Z,95289.00
2022-09-30T19:34:57.084Z,95279.00
2022-09-30T19:39:11.979Z,95288.00
2022-09-30T19:43:19.345Z,95299.00
2022-09-30T19:47:22.448Z,95298.00
2022-09-30T19:51:28.047Z,95285.00
2022-09-30T19:55:36.344Z,95283.00
2022-09-30T19:59:46.743Z,95287.00
2022-09-30T20:03:49.997Z,95288.00
2022-09-30T20:07:53.347Z,95295.00
2022-09-30T20:11:56.050Z,95290.00
2022-09-30T20:16:02.241Z,95292.00
2022-09-30T20:20:23.110Z,95293.00
2022-09-30T20:24:25.995Z,95291.00
2022-09-30T20:28:28.864Z,95293.00
2022-09-30T20:32:32.945Z,95278.00
2022-09-30T20:36:35.638Z,95276.00
2022-09-30T20:40:38.350Z,95274.00
2022-09-30T20:44:43.817Z,95290.00
2022-09-30T20:48:48.403Z,95287.00
2022-09-30T20:52:51.171Z,95291.00
2022-09-30T20:57:08.904Z,95295.00
2022-09-30T21:01:13.958Z,95299.00
2022-09-30T21:05:18.103Z,95297.00
2022-09-30T21:09:20.829Z,95305.00
2022-09-30T21:13:23.566Z,95317.00
2022-09-30T21:17:26.280Z,95310.00
2022-09-30T21:21:30.642Z,95323.00
2022-09-30T21:25:33.776Z,95312.00
2022-09-30T21:29:36.476Z,95304.00
2022-09-30T21:33:39.143Z,95294.00
2022-09-30T21:37:43.946Z,95304.00
2022-09-30T21:41:47.562Z,95303.00
2022-09-30T21:45:57.826Z,95291.00
2022-09-30T21:50:02.023Z,95299.00
2022-09-30T21:54:06.065Z,95296.00
2022-09-30T21:58:08.722Z,95302.00
2022-09-30T22:02:11.950Z,95306.00
2022-09-30T22:06:16.566Z,95303.00
2022-09-30T22:10:20.609Z,95312.00
2022-09-30T22:14:23.481Z,95301.00
2022-09-30T22:18:26.135Z,95305.00
2022-09-30T22:22:28.945Z,95310.00
2022-09-30T22:26:33.232Z,95322.00
2022-09-30T22:30:36.028Z,95321.00
2022-09-30T22:34:56.440Z,95317.00
2022-09-30T22:38:59.135Z,95328.00
2022-09-30T22:43:04.701Z,95325.00
2022-09-30T22:47:10.157Z,95326.00
2022-09-30T22:51:16.089Z,95345.00
2022-09-30T22:55:18.753Z,95350.00
2022-09-30T22:59:23.646Z,95352.00
2022-09-30T23:03:31.922Z,95353.00
2022-09-30T23:07:34.618Z,95358.00
2022-09-30T23:11:37.398Z,95368.00
2022-09-30T23:15:41.484Z,95363.00
2022-09-30T23:19:44.191Z,95376.00
2022-09-30T23:23:48.261Z,95378.00
2022-09-30T23:27:50.991Z,95373.00
2022-09-30T23:31:55.218Z,95375.00
2022-09-30T23:35:59.382Z,95383.00
2022-09-30T23:40:02.576Z,95398.00
2022-09-30T23:44:05.890Z,95400.00
2022-09-30T23:48:10.471Z,95404.00
2022-09-30T23:52:14.022Z,95401.00
2022-09-30T23:56:19.374Z,95410.00
